Barber, Kansas
Current Conditions -  °F | °C
As of 4:15 AM on Thursday 29 Jan 2015 (Local Time) from KPTS Reporting Station
Clear Clear  
Wind Chill: 51°   Ceiling: Unl
Heat Index: 51°   Visibility: 10mi
Dew Point: 38°   Wind: 10mph
Humidity: 60%   Direction: 340°NNW
Pressure: 30.04"   Gusts: NA
Location:  37.5542°N, 94.6826°W
Report Text: KPTS 291015Z AUTO 34009KT 300V360 10SM CLR 11/03 A3004 RMK AO2 T01050031
Loading
Personal Weather Stations






























Interactive Weather Map New forecast layout! Learn more

10-Day Weather Forecast

Advertisements
Track Severe Weather on mobile